createdAt,value
2023-08-06T00:00:41.089Z,997.03
2023-08-06T00:01:41.692Z,997.02
2023-08-06T00:02:42.212Z,997.00
2023-08-06T00:03:43.158Z,997.00
2023-08-06T00:04:44.026Z,996.98
2023-08-06T00:05:44.894Z,996.98
2023-08-06T00:06:45.772Z,996.97
2023-08-06T00:07:46.671Z,996.98
2023-08-06T00:08:47.524Z,996.98
2023-08-06T00:09:48.402Z,996.96
2023-08-06T00:10:49.261Z,996.96
2023-08-06T00:11:50.609Z,996.95
2023-08-06T00:12:51.098Z,996.95
2023-08-06T00:13:51.964Z,996.96
2023-08-06T00:14:52.839Z,996.95
2023-08-06T00:15:53.706Z,996.94
2023-08-06T00:16:54.638Z,996.92
2023-08-06T00:17:55.543Z,996.90
2023-08-06T00:18:56.267Z,996.88
2023-08-06T00:19:56.599Z,996.86
2023-08-06T00:20:57.469Z,996.85
2023-08-06T00:21:58.374Z,996.84
2023-08-06T00:22:59.300Z,996.84
2023-08-06T00:24:00.185Z,996.83
2023-08-06T00:25:01.089Z,996.81
2023-08-06T00:26:01.974Z,996.79
2023-08-06T00:27:02.832Z,996.79
2023-08-06T00:28:03.704Z,996.80
2023-08-06T00:29:04.571Z,996.81
2023-08-06T00:30:05.446Z,996.80
2023-08-06T00:31:06.336Z,996.82
2023-08-06T00:32:07.240Z,996.81
2023-08-06T00:33:08.187Z,996.81
2023-08-06T00:34:09.031Z,996.80
2023-08-06T00:35:09.904Z,996.79
2023-08-06T00:36:10.770Z,996.76
2023-08-06T00:37:11.652Z,996.73
2023-08-06T00:38:12.589Z,996.71
2023-08-06T00:39:13.445Z,996.68
2023-08-06T00:40:14.340Z,996.66
2023-08-06T00:41:15.212Z,996.65
2023-08-06T00:42:16.068Z,996.64
2023-08-06T00:43:16.970Z,996.64
2023-08-06T00:44:17.855Z,996.63
2023-08-06T00:45:18.720Z,996.64
2023-08-06T00:46:19.593Z,996.64
2023-08-06T00:47:20.517Z,996.65
2023-08-06T00:48:21.404Z,996.66
2023-08-06T00:49:22.284Z,996.66
2023-08-06T00:50:23.133Z,996.66
2023-08-06T00:51:23.988Z,996.66
2023-08-06T00:52:24.918Z,996.65
2023-08-06T00:53:25.758Z,996.64
2023-08-06T00:54:26.622Z,996.64
2023-08-06T00:55:27.526Z,996.64
2023-08-06T00:56:28.358Z,996.62
2023-08-06T00:57:29.211Z,996.60
2023-08-06T00:58:30.080Z,996.58
2023-08-06T00:59:31.000Z,996.57
2023-08-06T01:00:31.902Z,996.53
2023-08-06T01:01:32.785Z,996.52
2023-08-06T01:02:33.788Z,996.51
2023-08-06T01:03:34.233Z,996.53
2023-08-06T01:04:35.122Z,996.52
2023-08-06T01:05:43.530Z,996.51
2023-08-06T01:06:36.766Z,996.49
2023-08-06T01:07:37.531Z,996.48
2023-08-06T01:08:38.291Z,996.48
2023-08-06T01:09:39.047Z,996.46
2023-08-06T01:10:40.009Z,996.44
2023-08-06T01:11:40.862Z,996.43
2023-08-06T01:12:41.724Z,996.41
2023-08-06T01:13:42.603Z,996.41
2023-08-06T01:14:43.460Z,996.41
2023-08-06T01:15:44.324Z,996.42
2023-08-06T01:16:45.265Z,996.42
2023-08-06T01:17:46.160Z,996.42
2023-08-06T01:18:46.997Z,996.41
2023-08-06T01:19:47.884Z,996.41
2023-08-06T01:20:48.731Z,996.41
2023-08-06T01:21:49.721Z,996.42
2023-08-06T01:22:50.160Z,996.44
2023-08-06T01:23:51.030Z,996.45
2023-08-06T01:24:51.882Z,996.44
2023-08-06T01:25:52.750Z,996.45
2023-08-06T01:26:53.717Z,996.44
2023-08-06T01:27:54.594Z,996.44
2023-08-06T01:28:55.485Z,996.43
2023-08-06T01:29:56.340Z,996.42
2023-08-06T01:30:57.203Z,996.41
2023-08-06T01:31:58.068Z,996.40
2023-08-06T01:32:59.006Z,996.39
2023-08-06T01:33:59.904Z,996.36
2023-08-06T01:35:00.798Z,996.34
2023-08-06T01:36:01.652Z,996.34
2023-08-06T01:37:02.507Z,996.34
2023-08-06T01:38:03.385Z,996.34
2023-08-06T01:39:04.279Z,996.33
2023-08-06T01:40:05.156Z,996.31
2023-08-06T01:41:06.002Z,996.32
2023-08-06T01:42:06.878Z,996.31
2023-08-06T01:43:07.745Z,996.30
2023-08-06T01:44:08.628Z,996.29
2023-08-06T01:45:09.536Z,996.27
2023-08-06T01:46:10.533Z,996.25
2023-08-06T01:47:11.397Z,996.25
2023-08-06T01:48:12.265Z,996.24
2023-08-06T01:49:13.153Z,996.23
2023-08-06T01:50:14.017Z,996.22
2023-08-06T01:51:14.889Z,996.22
2023-08-06T01:52:15.780Z,996.19
2023-08-06T01:53:16.646Z,996.17
2023-08-06T01:54:17.516Z,996.15
2023-08-06T01:55:18.392Z,996.13
2023-08-06T01:56:19.297Z,996.12
2023-08-06T01:57:20.134Z,996.11
2023-08-06T01:58:21.006Z,996.10
2023-08-06T01:59:21.896Z,996.09
2023-08-06T02:00:22.766Z,996.08
2023-08-06T02:01:23.659Z,996.07
2023-08-06T02:02:24.596Z,996.07
2023-08-06T02:03:25.427Z,996.05
2023-08-06T02:04:26.425Z,996.04
2023-08-06T02:05:26.824Z,996.02
2023-08-06T02:06:27.668Z,996.02
2023-08-06T02:07:28.541Z,996.01
2023-08-06T02:08:29.407Z,996.00
2023-08-06T02:09:30.316Z,995.98
2023-08-06T02:10:31.175Z,995.97
2023-08-06T02:11:32.052Z,995.95
2023-08-06T02:12:32.919Z,995.93
2023-08-06T02:13:33.802Z,995.91
2023-08-06T02:14:34.690Z,995.90
2023-08-06T02:15:35.611Z,995.90
2023-08-06T02:16:36.450Z,995.89
2023-08-06T02:17:37.325Z,995.89
2023-08-06T02:18:38.198Z,995.90
2023-08-06T02:19:39.078Z,995.90
2023-08-06T02:20:39.980Z,995.90
2023-08-06T02:21:40.833Z,995.90
2023-08-06T02:22:41.719Z,995.88
2023-08-06T02:23:42.646Z,995.87
2023-08-06T02:24:43.463Z,995.85
2023-08-06T02:25:44.331Z,995.84
2023-08-06T02:26:45.240Z,995.83
2023-08-06T02:27:46.091Z,995.82
2023-08-06T02:28:46.966Z,995.82
2023-08-06T02:29:47.832Z,995.81
2023-08-06T02:30:48.710Z,995.81
2023-08-06T02:31:49.628Z,995.80
2023-08-06T02:32:50.560Z,995.80
2023-08-06T02:33:51.431Z,995.79
2023-08-06T02:34:52.292Z,995.77
2023-08-06T02:35:53.191Z,995.76
2023-08-06T02:36:54.025Z,995.76
2023-08-06T02:37:54.893Z,995.76
2023-08-06T02:38:55.775Z,995.76
2023-08-06T02:39:56.650Z,995.75
2023-08-06T02:40:57.534Z,995.74
2023-08-06T02:41:58.406Z,995.74
2023-08-06T02:42:59.262Z,995.74
2023-08-06T02:44:00.127Z,995.74
2023-08-06T02:45:00.997Z,995.74
2023-08-06T02:46:01.990Z,995.73
2023-08-06T02:47:02.409Z,995.72
2023-08-06T02:48:03.309Z,995.73
2023-08-06T02:49:04.148Z,995.72
2023-08-06T02:50:05.024Z,995.71
2023-08-06T02:51:05.925Z,995.70
2023-08-06T02:52:06.770Z,995.69
2023-08-06T02:53:07.643Z,995.68
2023-08-06T02:54:08.522Z,995.67
2023-08-06T02:55:09.377Z,995.66
2023-08-06T02:56:10.268Z,995.65
2023-08-06T02:57:11.139Z,995.64
2023-08-06T02:58:11.994Z,995.63
2023-08-06T02:59:12.869Z,995.61
2023-08-06T03:00:13.765Z,995.59
2023-08-06T03:01:14.646Z,995.58
2023-08-06T03:02:15.520Z,995.56
2023-08-06T03:03:16.393Z,995.55
2023-08-06T03:04:17.321Z,995.55
2023-08-06T03:05:18.207Z,995.53
2023-08-06T03:06:19.124Z,995.51
2023-08-06T03:07:19.958Z,995.48
2023-08-06T03:08:20.841Z,995.45
2023-08-06T03:09:21.706Z,995.43
2023-08-06T03:10:22.568Z,995.44
2023-08-06T03:11:23.437Z,995.44
2023-08-06T03:12:24.318Z,995.44
2023-08-06T03:13:25.214Z,995.44
2023-08-06T03:14:26.060Z,995.43
2023-08-06T03:15:26.939Z,995.45
2023-08-06T03:16:27.877Z,995.46
2023-08-06T03:17:28.715Z,995.46
2023-08-06T03:18:29.575Z,995.46
2023-08-06T03:19:30.453Z,995.46
2023-08-06T03:20:31.303Z,995.45
2023-08-06T03:21:32.183Z,995.44
2023-08-06T03:22:33.035Z,995.42
2023-08-06T03:23:33.928Z,995.41
2023-08-06T03:24:34.792Z,995.38
2023-08-06T03:25:35.705Z,995.37
2023-08-06T03:26:36.550Z,995.37
2023-08-06T03:27:37.415Z,995.36
2023-08-06T03:28:38.320Z,995.35
2023-08-06T03:29:39.229Z,995.33
2023-08-06T03:30:40.163Z,995.31
2023-08-06T03:31:40.656Z,995.30
2023-08-06T03:32:41.534Z,995.29
2023-08-06T03:33:42.400Z,995.29
2023-08-06T03:34:43.259Z,995.29
2023-08-06T03:35:44.129Z,995.28
2023-08-06T03:36:45.014Z,995.29
2023-08-06T03:37:45.881Z,995.29
2023-08-06T03:38:46.734Z,995.29
2023-08-06T03:39:47.605Z,995.30
2023-08-06T03:40:48.476Z,995.30
2023-08-06T03:41:49.376Z,995.29
2023-08-06T03:42:50.256Z,995.29
2023-08-06T03:43:51.141Z,995.28
2023-08-06T03:44:51.994Z,995.28
2023-08-06T03:45:52.874Z,995.28
2023-08-06T03:46:53.798Z,995.28
2023-08-06T03:47:54.724Z,995.27
2023-08-06T03:48:55.565Z,995.26
2023-08-06T03:49:56.452Z,995.26
2023-08-06T03:50:57.321Z,995.26
2023-08-06T03:51:58.204Z,995.25
2023-08-06T03:52:59.072Z,995.23
2023-08-06T03:53:59.936Z,995.21
2023-08-06T03:55:00.815Z,995.19
2023-08-06T03:56:01.688Z,995.17
2023-08-06T03:57:02.549Z,995.17
2023-08-06T03:58:03.426Z,995.16
2023-08-06T03:59:04.363Z,995.15
2023-08-06T04:00:05.217Z,995.15
2023-08-06T04:01:06.119Z,995.15
2023-08-06T04:02:06.970Z,995.15
2023-08-06T04:03:07.992Z,995.14
2023-08-06T04:04:08.353Z,995.14
2023-08-06T04:05:09.220Z,995.13
2023-08-06T04:06:10.098Z,995.13
2023-08-06T04:07:10.973Z,995.11
2023-08-06T04:08:11.844Z,995.10
2023-08-06T04:09:12.702Z,995.09
2023-08-06T04:10:13.581Z,995.09
2023-08-06T04:11:14.443Z,995.08
2023-08-06T04:12:15.303Z,995.08
2023-08-06T04:13:16.191Z,995.08
2023-08-06T04:14:17.082Z,995.09
2023-08-06T04:15:17.948Z,995.10
2023-08-06T04:16:18.903Z,995.11
2023-08-06T04:17:19.748Z,995.11
2023-08-06T04:18:20.623Z,995.11
2023-08-06T04:19:21.502Z,995.10
2023-08-06T04:20:22.361Z,995.10
2023-08-06T04:21:23.259Z,995.10
2023-08-06T04:22:24.132Z,995.10
2023-08-06T04:23:24.972Z,995.10
2023-08-06T04:24:25.836Z,995.09
2023-08-06T04:25:26.700Z,995.09
2023-08-06T04:26:27.579Z,995.09
2023-08-06T04:27:28.507Z,995.10
2023-08-06T04:28:29.320Z,995.11
2023-08-06T04:29:30.184Z,995.11
2023-08-06T04:30:31.061Z,995.11
2023-08-06T04:31:31.934Z,995.11
2023-08-06T04:32:32.836Z,995.10
2023-08-06T04:33:33.691Z,995.11
2023-08-06T04:34:34.551Z,995.12
2023-08-06T04:35:35.461Z,995.13
2023-08-06T04:36:36.371Z,995.15
2023-08-06T04:37:37.272Z,995.15
2023-08-06T04:38:38.144Z,995.15
2023-08-06T04:39:39.005Z,995.16
2023-08-06T04:40:39.860Z,995.16
2023-08-06T04:41:40.731Z,995.17
2023-08-06T04:42:41.594Z,995.19
2023-08-06T04:43:42.468Z,995.18
2023-08-06T04:44:43.332Z,995.18
2023-08-06T04:45:44.255Z,995.18
2023-08-06T04:46:45.102Z,995.19
2023-08-06T04:47:46.037Z,995.20
2023-08-06T04:48:46.864Z,995.20
2023-08-06T04:49:47.750Z,995.21
2023-08-06T04:50:48.609Z,995.21
2023-08-06T04:51:49.516Z,995.21
2023-08-06T04:52:50.368Z,995.21
2023-08-06T04:53:51.227Z,995.22
2023-08-06T04:54:52.118Z,995.22
2023-08-06T04:55:52.988Z,995.23
2023-08-06T04:56:53.868Z,995.24
2023-08-06T04:57:54.734Z,995.25
2023-08-06T04:58:55.595Z,995.26
2023-08-06T04:59:56.484Z,995.25
2023-08-06T05:00:57.357Z,995.25
2023-08-06T05:01:58.324Z,995.24
2023-08-06T05:02:59.246Z,995.24
2023-08-06T05:04:00.182Z,995.23
2023-08-06T05:05:01.085Z,995.23
2023-08-06T05:06:01.940Z,995.21
2023-08-06T05:07:02.829Z,995.21
2023-08-06T05:08:03.702Z,995.21
2023-08-06T05:09:04.594Z,995.22
2023-08-06T05:10:05.453Z,995.23
2023-08-06T05:11:06.317Z,995.25
2023-08-06T05:12:07.208Z,995.26
2023-08-06T05:13:08.088Z,995.28
2023-08-06T05:14:08.950Z,995.28
2023-08-06T05:15:09.820Z,995.29
2023-08-06T05:16:10.746Z,995.28
2023-08-06T05:17:11.596Z,995.27
2023-08-06T05:18:12.468Z,995.27
2023-08-06T05:19:13.357Z,995.26
2023-08-06T05:20:14.208Z,995.26
2023-08-06T05:21:15.076Z,995.27
2023-08-06T05:22:15.945Z,995.29
2023-08-06T05:23:16.842Z,995.31
2023-08-06T05:24:17.709Z,995.32
2023-08-06T05:25:18.579Z,995.33
2023-08-06T05:26:19.498Z,995.34
2023-08-06T05:27:20.323Z,995.34
2023-08-06T05:28:21.214Z,995.35
2023-08-06T05:29:22.083Z,995.35
2023-08-06T05:30:22.948Z,995.35
2023-08-06T05:31:23.830Z,995.34
2023-08-06T05:32:24.778Z,995.33
2023-08-06T05:33:25.217Z,995.34
2023-08-06T05:34:26.117Z,995.35
2023-08-06T05:35:26.976Z,995.36
2023-08-06T05:36:29.901Z,995.38
2023-08-06T05:37:28.519Z,995.38
2023-08-06T05:38:29.402Z,995.38
2023-08-06T05:39:30.255Z,995.39
2023-08-06T05:40:31.109Z,995.39
2023-08-06T05:41:31.994Z,995.38
2023-08-06T05:42:32.869Z,995.38
2023-08-06T05:43:33.735Z,995.39
2023-08-06T05:44:34.608Z,995.38
2023-08-06T05:45:35.501Z,995.39
2023-08-06T05:46:36.364Z,995.39
2023-08-06T05:47:37.237Z,995.38
2023-08-06T05:48:38.096Z,995.38
2023-08-06T05:49:38.986Z,995.38
2023-08-06T05:50:39.854Z,995.37
2023-08-06T05:51:40.784Z,995.38
2023-08-06T05:52:41.667Z,995.37
2023-08-06T05:53:42.550Z,995.36
2023-08-06T05:54:43.395Z,995.36
2023-08-06T05:55:44.274Z,995.35
2023-08-06T05:56:45.143Z,995.34
2023-08-06T05:57:46.027Z,995.32
2023-08-06T05:58:46.913Z,995.31
2023-08-06T05:59:47.779Z,995.28
2023-08-06T06:00:48.643Z,995.27
2023-08-06T06:01:49.535Z,995.26
2023-08-06T06:02:50.432Z,995.26
2023-08-06T06:03:51.335Z,995.27
2023-08-06T06:04:52.213Z,995.28
2023-08-06T06:05:53.070Z,995.27
2023-08-06T06:06:53.939Z,995.29
2023-08-06T06:07:54.804Z,995.29
2023-08-06T06:08:55.694Z,995.29
2023-08-06T06:09:56.563Z,995.30
2023-08-06T06:10:57.430Z,995.29
2023-08-06T06:11:58.301Z,995.30
2023-08-06T06:12:59.161Z,995.29
2023-08-06T06:14:00.045Z,995.28
2023-08-06T06:15:00.908Z,995.27
2023-08-06T06:16:01.799Z,995.27
2023-08-06T06:17:02.653Z,995.29
2023-08-06T06:18:03.661Z,995.29
2023-08-06T06:19:04.509Z,995.29
2023-08-06T06:20:05.532Z,995.29
2023-08-06T06:21:06.362Z,995.28
2023-08-06T06:22:07.235Z,995.28
2023-08-06T06:23:08.136Z,995.28
2023-08-06T06:24:09.008Z,995.27
2023-08-06T06:25:09.881Z,995.27
2023-08-06T06:26:10.728Z,995.27
2023-08-06T06:27:11.607Z,995.30
2023-08-06T06:28:12.490Z,995.29
2023-08-06T06:29:13.362Z,995.30
2023-08-06T06:30:14.253Z,995.30
2023-08-06T06:31:15.130Z,995.30
2023-08-06T06:32:16.012Z,995.30
2023-08-06T06:33:16.910Z,995.32
2023-08-06T06:34:17.769Z,995.30
2023-08-06T06:35:19.353Z,995.31
2023-08-06T06:36:19.197Z,995.31
2023-08-06T06:37:20.054Z,995.30
2023-08-06T06:38:20.938Z,995.31
2023-08-06T06:39:21.822Z,995.30
2023-08-06T06:40:22.703Z,995.30
2023-08-06T06:41:23.564Z,995.31
2023-08-06T06:42:24.447Z,995.33
2023-08-06T06:43:25.299Z,995.33
2023-08-06T06:44:26.183Z,995.34
2023-08-06T06:45:27.088Z,995.36
2023-08-06T06:46:27.936Z,995.37
2023-08-06T06:47:28.860Z,995.38
2023-08-06T06:48:29.793Z,995.38
2023-08-06T06:49:30.775Z,995.37
2023-08-06T06:50:31.612Z,995.39
2023-08-06T06:51:32.509Z,995.37
2023-08-06T06:52:33.353Z,995.38
2023-08-06T06:53:34.262Z,995.37
2023-08-06T06:54:35.117Z,995.38
2023-08-06T06:55:35.971Z,995.35
2023-08-06T06:56:36.835Z,995.34
2023-08-06T06:57:37.703Z,995.32
2023-08-06T06:58:38.584Z,995.33
2023-08-06T06:59:39.489Z,995.33
2023-08-06T07:00:40.306Z,995.31
2023-08-06T07:01:41.230Z,995.31
2023-08-06T07:02:42.129Z,995.30
2023-08-06T07:03:43.014Z,995.30
2023-08-06T07:04:43.862Z,995.30
2023-08-06T07:05:44.757Z,995.31
2023-08-06T07:06:45.592Z,995.30
2023-08-06T07:07:46.464Z,995.29
2023-08-06T07:08:47.338Z,995.29
2023-08-06T07:09:48.261Z,995.28
2023-08-06T07:10:49.093Z,995.30
2023-08-06T07:11:49.968Z,995.31
2023-08-06T07:12:50.860Z,995.34
2023-08-06T07:13:51.746Z,995.34
2023-08-06T07:14:52.600Z,995.34
2023-08-06T07:15:53.470Z,995.34
2023-08-06T07:16:54.388Z,995.37
2023-08-06T07:17:55.304Z,995.36
2023-08-06T07:18:56.167Z,995.37
2023-08-06T07:19:57.041Z,995.37
2023-08-06T07:20:57.925Z,995.36
2023-08-06T07:21:58.853Z,995.38
2023-08-06T07:22:59.665Z,995.36
2023-08-06T07:24:00.584Z,995.35
2023-08-06T07:25:01.473Z,995.34
2023-08-06T07:26:02.318Z,995.32
2023-08-06T07:27:03.197Z,995.31
2023-08-06T07:28:04.052Z,995.31
2023-08-06T07:29:04.929Z,995.31
2023-08-06T07:30:05.789Z,995.30
2023-08-06T07:31:09.269Z,995.31
2023-08-06T07:32:07.369Z,995.31
2023-08-06T07:33:08.229Z,995.31
2023-08-06T07:34:09.119Z,995.31
2023-08-06T07:35:10.002Z,995.33
2023-08-06T07:36:10.972Z,995.32
2023-08-06T07:37:11.863Z,995.32
2023-08-06T07:38:12.743Z,995.33
2023-08-06T07:39:13.617Z,995.34
2023-08-06T07:40:14.495Z,995.37
2023-08-06T07:41:15.412Z,995.36
2023-08-06T07:42:16.277Z,995.36
2023-08-06T07:43:17.143Z,995.37
2023-08-06T07:44:18.036Z,995.37
2023-08-06T07:45:18.907Z,995.37
2023-08-06T07:46:20.049Z,995.36
2023-08-06T07:47:20.419Z,995.35
2023-08-06T07:48:21.301Z,995.35
2023-08-06T07:49:22.163Z,995.34
2023-08-06T07:50:23.144Z,995.34
2023-08-06T07:51:24.012Z,995.33
2023-08-06T07:52:24.868Z,995.33
2023-08-06T07:53:25.738Z,995.32
2023-08-06T07:54:26.597Z,995.31
2023-08-06T07:55:27.507Z,995.31
2023-08-06T07:56:28.370Z,995.30
2023-08-06T07:57:29.247Z,995.31
2023-08-06T07:58:30.116Z,995.30
2023-08-06T07:59:30.982Z,995.29
2023-08-06T08:00:31.871Z,995.29
2023-08-06T08:01:32.741Z,995.29
2023-08-06T08:02:33.611Z,995.27
2023-08-06T08:03:34.561Z,995.28
2023-08-06T08:04:34.987Z,995.29
2023-08-06T08:05:35.842Z,995.31
2023-08-06T08:06:36.723Z,995.31
2023-08-06T08:07:37.594Z,995.31
2023-08-06T08:08:38.478Z,995.33
2023-08-06T08:09:39.346Z,995.32
2023-08-06T08:10:40.241Z,995.32
2023-08-06T08:11:41.093Z,995.32
2023-08-06T08:12:41.974Z,995.32
2023-08-06T08:13:42.837Z,995.31
2023-08-06T08:14:43.709Z,995.32
2023-08-06T08:15:44.597Z,995.30
2023-08-06T08:16:45.556Z,995.28
2023-08-06T08:17:46.464Z,995.28
2023-08-06T08:18:47.314Z,995.27
2023-08-06T08:19:48.190Z,995.26
2023-08-06T08:20:49.059Z,995.27
2023-08-06T08:21:49.917Z,995.28
2023-08-06T08:22:50.839Z,995.28
2023-08-06T08:23:51.694Z,995.28
2023-08-06T08:24:52.579Z,995.29
2023-08-06T08:25:53.452Z,995.29
2023-08-06T08:26:54.314Z,995.31
2023-08-06T08:27:55.198Z,995.31
2023-08-06T08:28:56.085Z,995.30
2023-08-06T08:29:57.056Z,995.28
2023-08-06T08:30:57.929Z,995.26
2023-08-06T08:31:58.873Z,995.25
2023-08-06T08:32:59.777Z,995.24
2023-08-06T08:34:00.657Z,995.23
2023-08-06T08:35:01.525Z,995.22
2023-08-06T08:36:02.392Z,995.21
2023-08-06T08:37:03.267Z,995.21
2023-08-06T08:38:04.147Z,995.22
2023-08-06T08:39:05.041Z,995.22
2023-08-06T08:40:05.904Z,995.22
2023-08-06T08:41:06.837Z,995.21
2023-08-06T08:42:07.679Z,995.22
2023-08-06T08:43:08.542Z,995.22
2023-08-06T08:44:09.407Z,995.22
2023-08-06T08:45:10.286Z,995.21
2023-08-06T08:46:11.168Z,995.22
2023-08-06T08:47:12.133Z,995.22
2023-08-06T08:48:13.116Z,995.22
2023-08-06T08:49:14.016Z,995.24
2023-08-06T08:50:14.959Z,995.24
2023-08-06T08:51:15.777Z,995.24
2023-08-06T08:52:16.650Z,995.25
2023-08-06T08:53:17.510Z,995.25
2023-08-06T08:54:18.388Z,995.26
2023-08-06T08:55:19.255Z,995.26
2023-08-06T08:56:20.162Z,995.26
2023-08-06T08:57:21.021Z,995.27
2023-08-06T08:58:21.886Z,995.27
2023-08-06T08:59:22.792Z,995.27
2023-08-06T09:00:23.705Z,995.27
2023-08-06T09:01:24.699Z,995.27
2023-08-06T09:02:25.209Z,995.27
2023-08-06T09:03:25.567Z,995.27
2023-08-06T09:04:26.440Z,995.28
2023-08-06T09:05:27.419Z,995.28
2023-08-06T09:06:28.261Z,995.29
2023-08-06T09:07:29.138Z,995.29
2023-08-06T09:08:30.021Z,995.29
2023-08-06T09:09:30.880Z,995.29
2023-08-06T09:10:31.754Z,995.30
2023-08-06T09:11:32.693Z,995.29
2023-08-06T09:12:33.538Z,995.25
2023-08-06T09:13:34.395Z,995.26
2023-08-06T09:14:35.308Z,995.24
2023-08-06T09:15:36.194Z,995.24
2023-08-06T09:16:37.165Z,995.23
2023-08-06T09:17:37.696Z,995.22
2023-08-06T09:18:38.572Z,995.21
2023-08-06T09:19:39.428Z,995.22
2023-08-06T09:20:40.346Z,995.23
2023-08-06T09:21:41.216Z,995.22
2023-08-06T09:22:42.075Z,995.22
2023-08-06T09:23:42.934Z,995.21
2023-08-06T09:24:43.464Z,995.20
2023-08-06T09:25:44.330Z,995.19
2023-08-06T09:26:45.262Z,995.19
2023-08-06T09:27:46.095Z,995.18
2023-08-06T09:28:46.993Z,995.18
2023-08-06T09:29:47.828Z,995.19
2023-08-06T09:30:48.785Z,995.20
2023-08-06T09:31:49.652Z,995.21
2023-08-06T09:32:50.524Z,995.22
2023-08-06T09:33:51.402Z,995.21
2023-08-06T09:34:52.280Z,995.21
2023-08-06T09:35:53.137Z,995.21
2023-08-06T09:36:54.016Z,995.21
2023-08-06T09:37:54.885Z,995.21
2023-08-06T09:38:55.753Z,995.21
2023-08-06T09:39:56.628Z,995.22
2023-08-06T09:40:57.503Z,995.22
2023-08-06T09:41:58.426Z,995.24
2023-08-06T09:42:59.287Z,995.24
2023-08-06T09:44:00.174Z,995.24
2023-08-06T09:45:01.040Z,995.26
2023-08-06T09:46:01.942Z,995.25
2023-08-06T09:47:02.798Z,995.24
2023-08-06T09:48:03.706Z,995.21
2023-08-06T09:49:04.567Z,995.24
2023-08-06T09:50:05.433Z,995.25
2023-08-06T09:51:06.296Z,995.26
2023-08-06T09:52:07.188Z,995.28
2023-08-06T09:53:08.060Z,995.29
2023-08-06T09:54:17.167Z,995.30
2023-08-06T09:55:10.712Z,995.30
2023-08-06T09:56:10.563Z,995.29
2023-08-06T09:57:11.453Z,995.29
2023-08-06T09:58:12.325Z,995.29
2023-08-06T09:59:13.213Z,995.29
2023-08-06T10:00:14.111Z,995.29
2023-08-06T10:01:15.023Z,995.29
2023-08-06T10:02:15.922Z,995.29
2023-08-06T10:03:16.909Z,995.30
2023-08-06T10:04:23.625Z,995.32
2023-08-06T10:05:19.074Z,995.33
2023-08-06T10:06:18.964Z,995.34
2023-08-06T10:07:19.817Z,995.34
2023-08-06T10:08:20.691Z,995.35
2023-08-06T10:09:21.703Z,995.33
2023-08-06T10:10:22.560Z,995.33
2023-08-06T10:11:23.428Z,995.33
2023-08-06T10:12:24.321Z,995.31
2023-08-06T10:13:25.196Z,995.30
2023-08-06T10:14:26.040Z,995.28
2023-08-06T10:15:26.940Z,995.27
2023-08-06T10:16:27.854Z,995.26
2023-08-06T10:17:41.194Z,995.26
2023-08-06T10:18:30.492Z,995.26
2023-08-06T10:19:30.332Z,995.26
2023-08-06T10:20:31.375Z,995.26
2023-08-06T10:21:31.723Z,995.25
2023-08-06T10:22:32.605Z,995.24
2023-08-06T10:23:33.463Z,995.23
2023-08-06T10:24:34.332Z,995.22
2023-08-06T10:25:35.227Z,995.21
2023-08-06T10:26:36.437Z,995.20
2023-08-06T10:27:36.843Z,995.19
2023-08-06T10:28:37.680Z,995.18
2023-08-06T10:29:38.582Z,995.18
2023-08-06T10:30:39.417Z,995.17
2023-08-06T10:31:40.305Z,995.17
2023-08-06T10:32:41.246Z,995.16
2023-08-06T10:33:42.110Z,995.15
2023-08-06T10:34:42.965Z,995.14
2023-08-06T10:35:43.831Z,995.14
2023-08-06T10:36:44.703Z,995.14
2023-08-06T10:37:45.657Z,995.15
2023-08-06T10:38:46.484Z,995.16
2023-08-06T10:39:47.364Z,995.17
2023-08-06T10:40:48.215Z,995.17
2023-08-06T10:41:49.084Z,995.16
2023-08-06T10:42:49.990Z,995.15
2023-08-06T10:43:50.839Z,995.13
2023-08-06T10:44:51.708Z,995.11
2023-08-06T10:45:52.570Z,995.09
2023-08-06T10:46:53.492Z,995.08
2023-08-06T10:47:54.370Z,995.05
2023-08-06T10:48:55.242Z,995.04
2023-08-06T10:49:56.114Z,995.04
2023-08-06T10:50:56.974Z,995.05
2023-08-06T10:51:57.841Z,995.05
2023-08-06T10:52:58.722Z,995.08
2023-08-06T10:53:59.604Z,995.07
2023-08-06T10:55:00.489Z,995.07
2023-08-06T10:56:01.383Z,995.06
2023-08-06T10:57:02.241Z,995.05
2023-08-06T10:58:03.141Z,995.05
2023-08-06T10:59:03.975Z,995.05
2023-08-06T11:00:15.757Z,995.08
2023-08-06T11:01:06.798Z,995.08
2023-08-06T11:02:06.158Z,995.10
2023-08-06T11:03:07.092Z,995.12
2023-08-06T11:04:07.968Z,995.12
2023-08-06T11:05:08.843Z,995.13
2023-08-06T11:06:09.717Z,995.13
2023-08-06T11:07:10.693Z,995.11
2023-08-06T11:08:11.509Z,995.11
2023-08-06T11:09:12.385Z,995.09
2023-08-06T11:10:13.405Z,995.08
2023-08-06T11:11:13.831Z,995.07
2023-08-06T11:12:14.703Z,995.07
2023-08-06T11:13:15.587Z,995.05
2023-08-06T11:14:16.451Z,995.05
2023-08-06T11:15:17.320Z,995.05
2023-08-06T11:16:18.234Z,995.04
2023-08-06T11:17:19.067Z,995.06
2023-08-06T11:18:19.940Z,995.06
2023-08-06T11:19:20.937Z,995.06
2023-08-06T11:20:21.781Z,995.06
2023-08-06T11:21:22.657Z,995.03
2023-08-06T11:22:23.536Z,995.02
2023-08-06T11:23:24.400Z,995.04
2023-08-06T11:24:25.257Z,995.04
2023-08-06T11:25:26.146Z,995.04
2023-08-06T11:26:27.018Z,995.03
2023-08-06T11:27:27.897Z,995.02
2023-08-06T11:28:28.793Z,995.00
2023-08-06T11:29:29.684Z,994.99
2023-08-06T11:30:30.532Z,995.01
2023-08-06T11:31:31.428Z,995.02
2023-08-06T11:32:32.380Z,995.03
2023-08-06T11:33:33.239Z,995.04
2023-08-06T11:34:34.088Z,995.05
2023-08-06T11:35:34.970Z,995.06
2023-08-06T11:36:35.872Z,995.08
2023-08-06T11:37:36.753Z,995.09
2023-08-06T11:38:37.642Z,995.11
2023-08-06T11:39:38.490Z,995.12
2023-08-06T11:40:39.375Z,995.11
2023-08-06T11:41:40.250Z,995.12
2023-08-06T11:42:41.111Z,995.11
2023-08-06T11:43:42.002Z,995.09
2023-08-06T11:44:42.867Z,995.07
2023-08-06T11:45:43.783Z,995.06
2023-08-06T11:46:44.714Z,995.05
2023-08-06T11:47:45.623Z,995.06
2023-08-06T11:48:46.475Z,995.07
2023-08-06T11:49:47.360Z,995.05
2023-08-06T11:50:48.263Z,995.05
2023-08-06T11:51:49.090Z,995.05
2023-08-06T11:52:49.985Z,995.02
2023-08-06T11:53:50.935Z,994.97
2023-08-06T11:54:51.775Z,994.97
2023-08-06T11:55:52.651Z,994.96
2023-08-06T11:56:53.510Z,994.93
2023-08-06T11:57:54.410Z,994.90
2023-08-06T11:58:55.284Z,994.93
2023-08-06T11:59:56.151Z,994.89
2023-08-06T12:00:57.036Z,994.89
2023-08-06T12:01:58.281Z,994.89
2023-08-06T12:02:58.843Z,994.91
2023-08-06T12:03:59.749Z,994.88
2023-08-06T12:05:00.598Z,994.90
2023-08-06T12:06:01.478Z,994.90
2023-08-06T12:07:02.357Z,994.94
2023-08-06T12:08:03.237Z,994.93
2023-08-06T12:09:04.102Z,994.95
2023-08-06T12:10:04.975Z,994.98
2023-08-06T12:11:05.842Z,994.93
2023-08-06T12:12:06.706Z,994.90
2023-08-06T12:13:07.602Z,994.93
2023-08-06T12:14:08.481Z,994.92
2023-08-06T12:15:09.355Z,994.96
2023-08-06T12:16:10.228Z,994.96
2023-08-06T12:17:11.073Z,994.93
2023-08-06T12:18:12.076Z,994.95
2023-08-06T12:19:12.890Z,994.95
2023-08-06T12:20:13.772Z,994.92
2023-08-06T12:21:14.651Z,994.94
2023-08-06T12:22:15.512Z,994.91
2023-08-06T12:23:16.399Z,994.88
2023-08-06T12:24:17.268Z,994.84
2023-08-06T12:25:18.251Z,994.87
2023-08-06T12:26:19.110Z,994.85
2023-08-06T12:27:19.969Z,994.86
2023-08-06T12:28:22.939Z,994.85
2023-08-06T12:29:21.476Z,994.84
2023-08-06T12:30:22.350Z,994.83
2023-08-06T12:31:23.198Z,994.78
2023-08-06T12:32:24.115Z,994.77
2023-08-06T12:33:24.966Z,994.83
2023-08-06T12:34:27.459Z,994.81
2023-08-06T12:35:26.634Z,994.83
2023-08-06T12:36:27.468Z,994.81
2023-08-06T12:37:28.334Z,994.82
2023-08-06T12:38:29.232Z,994.79
2023-08-06T12:39:30.085Z,994.79